createdAt,value
2023-01-07T00:03:18.584Z,100850.13
2023-01-07T00:08:20.166Z,100856.03
2023-01-07T00:13:21.737Z,100846.28
2023-01-07T00:18:23.328Z,100839.97
2023-01-07T00:23:25.293Z,100828.31
2023-01-07T00:28:26.987Z,100827.22
2023-01-07T00:33:28.604Z,100823.28
2023-01-07T00:38:30.416Z,100817.06
2023-01-07T00:43:32.467Z,100807.00
2023-01-07T00:48:33.936Z,100809.03
2023-01-07T00:53:35.513Z,100800.63
2023-01-07T00:58:37.740Z,100792.97
2023-01-07T01:03:40.117Z,100791.59
2023-01-07T01:08:46.180Z,100789.72
2023-01-07T01:13:47.713Z,100780.25
2023-01-07T01:18:49.270Z,100794.50
2023-01-07T01:23:50.790Z,100782.38
2023-01-07T01:28:52.370Z,100780.09
2023-01-07T01:33:54.951Z,100785.13
2023-01-07T01:38:56.427Z,100787.13
2023-01-07T01:43:58.237Z,100779.09
2023-01-07T01:49:23.386Z,100774.44
2023-01-07T01:54:25.924Z,100779.69
2023-01-07T01:59:31.117Z,100772.34
2023-01-07T02:04:34.028Z,100760.25
2023-01-07T02:09:35.699Z,100756.53
2023-01-07T02:14:45.954Z,100751.38
2023-01-07T02:20:07.481Z,100768.03
2023-01-07T02:25:23.603Z,100760.69
2023-01-07T02:30:37.099Z,100766.44
2023-01-07T02:36:03.259Z,100760.41
2023-01-07T02:41:14.544Z,100759.31
2023-01-07T02:46:23.066Z,100753.94
2023-01-07T02:51:32.914Z,100752.00
2023-01-07T02:57:11.819Z,100753.66
2023-01-07T03:02:42.119Z,100739.94
2023-01-07T03:08:20.873Z,100737.00
2023-01-07T03:13:34.797Z,100730.56
2023-01-07T03:18:42.716Z,100726.34
2023-01-07T03:23:50.767Z,100727.44
2023-01-07T03:28:54.092Z,100729.81
2023-01-07T03:34:04.797Z,100720.84
2023-01-07T03:39:09.332Z,100721.78
2023-01-07T03:44:10.807Z,100713.47
2023-01-07T03:49:12.341Z,100704.09
2023-01-07T03:54:13.921Z,100701.00
2023-01-07T03:59:15.669Z,100695.34
2023-01-07T04:04:17.557Z,100696.09
2023-01-07T04:09:19.082Z,100686.03
2023-01-07T04:14:20.487Z,100684.38
2023-01-07T04:19:22.444Z,100672.38
2023-01-07T04:24:24.003Z,100671.88
2023-01-07T04:29:25.719Z,100664.91
2023-01-07T04:34:27.800Z,100657.03
2023-01-07T04:39:29.510Z,100649.81
2023-01-07T04:44:31.241Z,100641.53
2023-01-07T04:49:32.712Z,100636.88
2023-01-07T04:54:34.377Z,100628.94
2023-01-07T04:59:35.934Z,100631.81
2023-01-07T05:04:37.506Z,100626.91
2023-01-07T05:09:39.263Z,100623.53
2023-01-07T05:14:40.842Z,100620.91
2023-01-07T05:19:42.469Z,100617.06
2023-01-07T05:24:44.031Z,100605.81
2023-01-07T05:29:45.489Z,100605.41
2023-01-07T05:34:47.031Z,100605.56
2023-01-07T05:39:48.664Z,100597.78
2023-01-07T05:44:50.150Z,100592.25
2023-01-07T05:49:51.894Z,100584.31
2023-01-07T05:54:53.335Z,100581.94
2023-01-07T05:59:54.748Z,100588.50
2023-01-07T06:04:56.288Z,100574.50
2023-01-07T06:09:57.817Z,100588.75
2023-01-07T06:14:59.425Z,100578.34
2023-01-07T06:20:01.045Z,100572.34
2023-01-07T06:25:03.389Z,100574.22
2023-01-07T06:30:05.665Z,100562.59
2023-01-07T06:35:09.573Z,100555.75
2023-01-07T06:40:12.515Z,100551.22
2023-01-07T06:45:13.965Z,100539.44
2023-01-07T06:50:16.290Z,100533.19
2023-01-07T06:55:18.007Z,100532.25
2023-01-07T07:00:19.592Z,100523.47
2023-01-07T07:05:21.007Z,100517.13
2023-01-07T07:10:22.602Z,100514.81
2023-01-07T07:15:24.403Z,100521.41
2023-01-07T07:20:25.994Z,100522.41
2023-01-07T07:25:27.699Z,100519.03
2023-01-07T07:30:46.230Z,100520.34
2023-01-07T07:35:49.617Z,100502.00
2023-01-07T07:40:51.153Z,100499.34
2023-01-07T07:45:52.679Z,100493.09
2023-01-07T07:50:54.294Z,100498.75
2023-01-07T07:55:55.855Z,100492.13
2023-01-07T08:00:57.371Z,100481.97
2023-01-07T08:05:58.875Z,100483.38
2023-01-07T08:11:00.370Z,100468.50
2023-01-07T08:16:01.942Z,100472.94
2023-01-07T08:21:03.426Z,100472.47
2023-01-07T08:26:05.276Z,100452.66
2023-01-07T08:31:08.163Z,100448.91
2023-01-07T08:36:22.085Z,100437.41
2023-01-07T08:41:24.936Z,100435.47
2023-01-07T08:46:26.481Z,100430.28
2023-01-07T08:51:28.271Z,100432.78
2023-01-07T08:56:29.867Z,100430.50
2023-01-07T09:01:31.741Z,100421.97
2023-01-07T09:06:33.212Z,100416.56
2023-01-07T09:11:35.076Z,100403.72
2023-01-07T09:16:36.590Z,100389.88
2023-01-07T09:21:38.174Z,100391.78
2023-01-07T09:26:42.612Z,100392.53
2023-01-07T09:31:44.471Z,100388.78
2023-01-07T09:36:46.182Z,100384.06
2023-01-07T09:41:53.880Z,100387.94
2023-01-07T09:46:57.429Z,100383.41
2023-01-07T09:52:07.925Z,100373.16
2023-01-07T09:57:16.538Z,100376.38
2023-01-07T10:02:50.680Z,100361.22
2023-01-07T10:08:30.363Z,100364.75
2023-01-07T10:13:57.332Z,100359.91
2023-01-07T10:19:03.985Z,100341.97
2023-01-07T10:24:16.260Z,100340.88
2023-01-07T10:29:29.073Z,100341.88
2023-01-07T10:34:36.576Z,100326.72
2023-01-07T10:39:51.774Z,100317.94
2023-01-07T10:45:09.183Z,100305.56
2023-01-07T10:50:44.334Z,100301.59
2023-01-07T10:55:56.956Z,100279.84
2023-01-07T11:00:59.058Z,100277.22
2023-01-07T11:06:08.574Z,100274.28
2023-01-07T11:11:16.939Z,100261.34
2023-01-07T11:16:24.842Z,100264.66
2023-01-07T11:21:42.940Z,100249.66
2023-01-07T11:26:46.716Z,100253.41
2023-01-07T11:31:52.246Z,100237.94
2023-01-07T11:36:54.390Z,100226.41
2023-01-07T11:41:57.457Z,100216.78
2023-01-07T11:46:59.108Z,100198.44
2023-01-07T11:52:00.636Z,100185.34
2023-01-07T11:57:16.194Z,100174.47
2023-01-07T12:02:26.957Z,100167.78
2023-01-07T12:07:28.530Z,100161.66
2023-01-07T12:12:30.397Z,100147.19
2023-01-07T12:17:34.730Z,100142.75
2023-01-07T12:22:48.121Z,100133.03
2023-01-07T12:28:04.537Z,100114.06
2023-01-07T12:33:25.803Z,100107.78
2023-01-07T12:38:43.638Z,100104.31
2023-01-07T12:43:53.998Z,100099.88
2023-01-07T12:49:07.222Z,100084.97
2023-01-07T12:54:17.611Z,100077.31
2023-01-07T12:59:45.961Z,100065.91
2023-01-07T13:05:08.468Z,100078.44
2023-01-07T13:10:19.487Z,100077.06
2023-01-07T13:15:27.125Z,100078.16
2023-01-07T13:20:41.018Z,100073.03
2023-01-07T13:26:18.332Z,100071.50
2023-01-07T13:31:25.668Z,100050.59
2023-01-07T13:36:45.407Z,100050.78
2023-01-07T13:41:57.812Z,100041.84
2023-01-07T13:47:03.702Z,100046.97
2023-01-07T13:52:23.761Z,100038.19
2023-01-07T13:57:31.429Z,100034.56
2023-01-07T14:03:02.994Z,100039.63
2023-01-07T14:08:04.737Z,100032.22
2023-01-07T14:13:38.784Z,100018.44
2023-01-07T14:19:24.934Z,100004.66
2023-01-07T14:24:42.928Z,99993.03
2023-01-07T14:29:49.682Z,99982.69
2023-01-07T14:34:56.292Z,99986.59
2023-01-07T14:39:57.977Z,99979.25
2023-01-07T14:45:01.807Z,99987.31
2023-01-07T14:50:21.932Z,99986.66
2023-01-07T14:55:33.929Z,99989.72
2023-01-07T15:00:57.616Z,99988.59
2023-01-07T15:06:23.343Z,99998.50
2023-01-07T15:11:26.265Z,100005.72
2023-01-07T15:16:30.550Z,100007.38
2023-01-07T15:21:38.255Z,100001.13
2023-01-07T15:27:02.457Z,99993.47
2023-01-07T15:32:18.851Z,99999.44
2023-01-07T15:37:20.955Z,99987.22
2023-01-07T15:42:24.946Z,99982.22
2023-01-07T15:47:36.264Z,99970.00
2023-01-07T15:52:37.796Z,99962.78
2023-01-07T15:57:39.355Z,99968.47
2023-01-07T16:02:43.530Z,99950.28
2023-01-07T16:07:48.195Z,99940.97
2023-01-07T16:12:52.131Z,99942.22
2023-01-07T16:18:23.384Z,99929.13
2023-01-07T16:23:27.889Z,99922.84
2023-01-07T16:28:38.104Z,99919.66
2023-01-07T16:33:42.159Z,99916.47
2023-01-07T16:38:46.982Z,99914.66
2023-01-07T16:43:48.829Z,99902.16
2023-01-07T16:49:09.089Z,99904.94
2023-01-07T16:54:31.781Z,99902.16
2023-01-07T16:59:43.366Z,99903.66
2023-01-07T17:04:46.201Z,99894.09
2023-01-07T17:09:48.167Z,99887.41
2023-01-07T17:14:50.135Z,99895.16
2023-01-07T17:20:11.633Z,99891.69
2023-01-07T17:25:15.738Z,99886.53
2023-01-07T17:30:20.353Z,99879.88
2023-01-07T17:35:24.348Z,99889.47
2023-01-07T17:40:25.850Z,99887.50
2023-01-07T17:45:27.962Z,99868.91
2023-01-07T17:50:36.556Z,99862.50
2023-01-07T17:55:38.004Z,99870.09
2023-01-07T18:00:39.721Z,99859.97
2023-01-07T18:05:41.269Z,99871.13
2023-01-07T18:10:44.238Z,99868.47
2023-01-07T18:15:45.739Z,99862.97
2023-01-07T18:20:47.487Z,99864.78
2023-01-07T18:25:51.592Z,99864.22
2023-01-07T18:30:53.359Z,99853.28
2023-01-07T18:35:54.965Z,99846.63
2023-01-07T18:40:56.623Z,99848.13
2023-01-07T18:45:58.159Z,99836.91
2023-01-07T18:50:59.751Z,99821.34
2023-01-07T18:56:01.314Z,99812.19
2023-01-07T19:01:05.853Z,99804.56
2023-01-07T19:06:10.107Z,99805.81
2023-01-07T19:11:14.228Z,99801.91
2023-01-07T19:16:15.796Z,99809.69
2023-01-07T19:21:17.269Z,99813.72
2023-01-07T19:26:19.051Z,99802.72
2023-01-07T19:31:20.556Z,99810.38
2023-01-07T19:36:22.163Z,99823.84
2023-01-07T19:41:23.914Z,99844.38
2023-01-07T19:46:26.640Z,99842.03
2023-01-07T19:51:28.151Z,99845.78
2023-01-07T19:56:29.640Z,99843.28
2023-01-07T20:01:31.297Z,99838.28
2023-01-07T20:06:35.546Z,99815.22
2023-01-07T20:11:38.671Z,99789.69
2023-01-07T20:16:41.098Z,99806.06
2023-01-07T20:21:42.695Z,99806.06
2023-01-07T20:26:44.160Z,99819.13
2023-01-07T20:31:45.773Z,99814.84
2023-01-07T20:36:47.332Z,99826.34
2023-01-07T20:41:48.907Z,99815.50
2023-01-07T20:46:50.405Z,99826.19
2023-01-07T20:51:52.134Z,99838.97
2023-01-07T20:56:53.702Z,99820.50
2023-01-07T21:01:55.375Z,99826.47
2023-01-07T21:06:57.112Z,99837.16
2023-01-07T21:11:58.556Z,99821.63
2023-01-07T21:17:00.030Z,99804.69
2023-01-07T21:22:01.532Z,99795.38
2023-01-07T21:27:03.374Z,99793.00
2023-01-07T21:32:05.090Z,99778.72
2023-01-07T21:37:06.551Z,99783.44
2023-01-07T21:42:08.016Z,99770.22
2023-01-07T21:47:09.531Z,99773.97
2023-01-07T21:52:11.065Z,99795.50
2023-01-07T21:57:12.709Z,99791.09
2023-01-07T22:02:14.371Z,99786.06
2023-01-07T22:07:18.401Z,99790.22
2023-01-07T22:12:19.860Z,99789.25
2023-01-07T22:17:21.443Z,99775.94
2023-01-07T22:22:22.880Z,99775.38
2023-01-07T22:27:24.331Z,99774.66
2023-01-07T22:32:25.771Z,99774.50
2023-01-07T22:37:27.247Z,99782.53
2023-01-07T22:42:38.407Z,99783.91
2023-01-07T22:47:43.606Z,99782.94
2023-01-07T22:52:45.663Z,99769.41
2023-01-07T22:57:47.368Z,99769.53
2023-01-07T23:02:48.915Z,99772.88
2023-01-07T23:07:50.411Z,99758.41
2023-01-07T23:12:51.875Z,99754.00
2023-01-07T23:17:54.681Z,99732.19
2023-01-07T23:22:56.184Z,99722.69
2023-01-07T23:27:57.819Z,99717.28
2023-01-07T23:32:59.281Z,99719.81
2023-01-07T23:38:00.804Z,99708.13
2023-01-07T23:43:03.020Z,99705.75
2023-01-07T23:48:04.539Z,99684.97
2023-01-07T23:53:06.237Z,99677.28
2023-01-07T23:58:07.729Z,99666.03
